Terminal Aerodrome Forecast
Issued by NWS Grand Forks, ND

Home | Current Version | Previous Version | Text Only | Print | Product List | Glossary Off
Versions: 1 2 3 4 5 6 7 8 9 10 11 12 13

000
FTUS43 KFGF 291720
TAFFAR
TAF
KFAR 291720Z 2918/3018 28022G35KT P6SM SCT040
     FM300200 28010KT P6SM SKC
     FM301600 30016KT P6SM SCT040=

USA.gov is the U.S. government's official web portal to all federal, state and local government web resources and services.